Time;durP1;ratioP1;P1;durP2;ratioP2;P2;SDS_P1;SDS_P2;PMS_P1;PMS_P2;Temp;Humidity;BMP_temperature;BMP_pressure;BME280_temperature;BME280_humidity;BME280_pressure;Samples;Min_cycle;Max_cycle;Signal;HPM_P1;HPM_P2
2022/05/28 00:01:56;;;;;;;5.63;1.63;;;11.80;99.90;;;;;;5026408;28;20103;-71
2022/05/28 00:04:21;;;;;;;6.45;1.00;;;11.90;99.90;;;;;;5027547;28;20052;-71
2022/05/28 00:06:47;;;;;;;4.75;0.93;;;12.00;99.90;;;;;;5027882;28;20049;-70
2022/05/28 00:09:14;;;;;;;10.45;1.55;;;12.00;99.90;;;;;;5027480;28;20087;-71
2022/05/28 00:11:41;;;;;;;11.38;1.83;;;12.00;99.90;;;;;;5030717;28;20057;-71
2022/05/28 00:14:08;;;;;;;5.40;0.82;;;12.00;99.90;;;;;;5031542;28;20045;-70
2022/05/28 00:16:36;;;;;;;5.97;0.70;;;12.00;99.90;;;;;;5030147;28;20564;-70
2022/05/28 00:19:02;;;;;;;5.97;1.10;;;12.00;99.90;;;;;;5022922;28;20478;-71
2022/05/28 00:21:28;;;;;;;6.65;0.90;;;12.10;99.90;;;;;;5029158;28;20405;-70
2022/05/28 00:23:54;;;;;;;9.38;1.00;;;12.00;99.90;;;;;;5030874;28;20029;-71
2022/05/28 00:26:19;;;;;;;10.85;1.48;;;12.10;99.90;;;;;;5028707;28;20046;-70
2022/05/28 00:28:45;;;;;;;7.00;1.10;;;12.10;99.90;;;;;;5029202;28;20072;-71
2022/05/28 00:31:12;;;;;;;5.88;0.70;;;12.10;99.90;;;;;;5029376;28;20148;-71
2022/05/28 00:33:38;;;;;;;7.07;0.80;;;12.10;99.90;;;;;;5030440;28;20517;-71
2022/05/28 00:36:05;;;;;;;4.28;0.85;;;12.10;99.90;;;;;;5029777;28;20048;-71
2022/05/28 00:38:31;;;;;;;5.32;1.00;;;12.10;99.90;;;;;;5023186;28;20087;-71
2022/05/28 00:40:58;;;;;;;7.30;0.70;;;12.10;99.90;;;;;;5031166;28;20481;-70
2022/05/28 00:43:24;;;;;;;3.92;1.00;;;12.00;99.90;;;;;;5030102;28;20096;-71
2022/05/28 00:45:54;;;;;;;6.30;0.95;;;12.00;99.90;;;;;;5030800;28;20512;-71
2022/05/28 00:48:26;;;;;;;13.93;2.38;;;12.00;99.90;;;;;;5030844;28;20064;-72
2022/05/28 00:50:52;;;;;;;9.05;1.23;;;12.00;99.90;;;;;;5030900;28;20042;-71
2022/05/28 00:53:19;;;;;;;5.45;0.75;;;12.00;99.90;;;;;;5026942;28;20029;-71
2022/05/28 00:55:44;;;;;;;8.95;1.67;;;12.00;99.90;;;;;;5029140;28;20397;-71
2022/05/28 00:58:10;;;;;;;12.80;1.45;;;12.10;99.90;;;;;;5030437;28;20030;-71
2022/05/28 01:00:37;;;;;;;8.32;1.10;;;12.10;99.90;;;;;;5030094;28;20034;-71
2022/05/28 01:03:28;;;;;;;10.25;0.88;;;12.10;99.90;;;;;;5030436;28;20040;-71
2022/05/28 01:06:14;;;;;;;;;;;12.10;99.90;;;;;;5027435;28;20073;-70
2022/05/28 01:09:13;;;;;;;12.93;1.38;;;12.10;99.90;;;;;;5025187;28;20453;-70
2022/05/28 01:11:51;;;;;;;15.77;1.30;;;12.00;99.90;;;;;;5023103;28;20034;-71
2022/05/28 01:14:44;;;;;;;10.40;1.83;;;12.00;99.90;;;;;;5029528;28;20030;-69
2022/05/28 01:17:13;;;;;;;7.70;1.90;;;12.00;99.90;;;;;;5025225;28;20044;-71
2022/05/28 01:20:04;;;;;;;9.02;1.13;;;12.00;99.90;;;;;;5029499;28;20037;-71
2022/05/28 01:22:40;;;;;;;17.90;1.77;;;11.90;99.90;;;;;;5021215;28;20405;-71
2022/05/28 01:25:26;;;;;;;6.47;2.05;;;11.90;99.90;;;;;;5024554;28;20029;-71
2022/05/28 01:28:01;;;;;;;6.85;0.93;;;11.90;99.90;;;;;;5026224;28;20044;-71
2022/05/28 01:30:27;;;;;;;11.90;1.63;;;11.80;99.90;;;;;;5022144;28;20033;-71
2022/05/28 01:32:56;;;;;;;7.28;0.93;;;11.80;99.90;;;;;;5029384;28;20037;-71
2022/05/28 01:35:23;;;;;;;11.40;2.20;;;11.80;99.90;;;;;;5030055;28;20029;-72
2022/05/28 01:37:50;;;;;;;9.35;1.15;;;11.80;99.90;;;;;;5029640;28;20021;-71
2022/05/28 01:40:16;;;;;;;8.63;1.45;;;11.70;99.90;;;;;;5029411;28;20037;-71
2022/05/28 01:42:46;;;;;;;11.63;1.60;;;11.70;99.90;;;;;;5029862;28;20067;-71
2022/05/28 01:45:16;;;;;;;20.80;2.67;;;11.70;99.90;;;;;;5030074;28;20103;-71
2022/05/28 01:47:43;;;;;;;15.70;1.50;;;11.70;99.90;;;;;;5029351;28;20029;-70
2022/05/28 01:50:12;;;;;;;7.45;1.70;;;11.70;99.90;;;;;;5028813;28;20034;-71
2022/05/28 01:52:40;;;;;;;13.10;1.20;;;11.60;99.90;;;;;;5023683;28;20493;-72
2022/05/28 01:55:07;;;;;;;11.75;1.58;;;11.60;99.90;;;;;;5029088;28;20044;-71
2022/05/28 01:57:33;;;;;;;12.60;1.52;;;11.60;99.90;;;;;;5027746;28;20025;-71
2022/05/28 01:59:58;;;;;;;6.60;0.98;;;11.60;99.90;;;;;;5028568;28;20123;-71
2022/05/28 02:02:24;;;;;;;16.63;1.65;;;11.60;99.90;;;;;;5021354;28;20083;-71
2022/05/28 02:04:50;;;;;;;13.05;1.50;;;11.60;99.90;;;;;;5028766;28;20038;-71
2022/05/28 02:07:17;;;;;;;12.25;2.22;;;11.60;99.90;;;;;;5029214;28;20057;-71
2022/05/28 02:09:46;;;;;;;14.98;1.30;;;11.60;99.90;;;;;;5029197;28;20029;-70
2022/05/28 02:12:49;;;;;;;14.13;2.08;;;11.60;99.90;;;;;;5029737;28;20030;-71
2022/05/28 02:15:33;;;;;;;19.27;1.95;;;11.70;99.90;;;;;;5024642;28;20033;-71
2022/05/28 02:18:05;;;;;;;8.10;1.45;;;11.60;99.90;;;;;;5023256;28;20049;-71
2022/05/28 02:20:52;;;;;;;13.45;2.38;;;11.70;99.90;;;;;;5027115;28;20037;-71
2022/05/28 02:23:24;;;;;;;15.88;1.65;;;11.70;99.90;;;;;;5029563;28;20041;-70
2022/05/28 02:26:03;;;;;;;14.60;1.80;;;11.70;99.90;;;;;;5024713;28;20163;-71
2022/05/28 02:28:30;;;;;;;12.27;1.05;;;11.70;99.90;;;;;;5025235;28;20025;-71
2022/05/28 02:31:02;;;;;;;6.60;1.20;;;11.70;99.90;;;;;;5029887;28;20175;-71
2022/05/28 02:33:30;;;;;;;14.30;1.67;;;11.70;99.90;;;;;;5038638;28;20029;-71
2022/05/28 02:35:55;;;;;;;13.43;1.38;;;11.70;99.90;;;;;;5045491;28;20045;-71
2022/05/28 02:38:21;;;;;;;8.48;1.45;;;11.70;99.90;;;;;;5040211;28;20043;-71
2022/05/28 02:40:46;;;;;;;16.23;1.70;;;11.70;99.90;;;;;;5032972;28;20037;-71
2022/05/28 02:43:13;;;;;;;8.27;1.27;;;11.60;99.90;;;;;;5030017;28;20042;-71
2022/05/28 02:45:40;;;;;;;6.78;1.75;;;11.60;99.90;;;;;;5028521;28;20088;-70
2022/05/28 02:48:05;;;;;;;11.40;1.50;;;11.50;99.90;;;;;;5029616;28;20116;-71
2022/05/28 02:50:31;;;;;;;10.57;1.88;;;11.50;99.90;;;;;;5027290;28;20149;-71
2022/05/28 02:52:57;;;;;;;10.13;1.45;;;11.50;99.90;;;;;;5029777;28;20065;-71
2022/05/28 02:55:23;;;;;;;15.55;1.80;;;11.50;99.90;;;;;;5029007;28;20041;-71
2022/05/28 02:57:49;;;;;;;13.05;1.70;;;11.50;99.90;;;;;;5027890;28;20038;-71
2022/05/28 03:00:16;;;;;;;12.73;1.13;;;11.40;99.90;;;;;;5028486;28;20034;-72
2022/05/28 03:02:43;;;;;;;10.63;1.70;;;11.40;99.90;;;;;;5029028;28;20037;-71
2022/05/28 03:05:10;;;;;;;11.05;1.33;;;11.40;99.90;;;;;;5029236;28;20068;-71
2022/05/28 03:07:35;;;;;;;10.70;1.30;;;11.40;99.90;;;;;;5028340;28;20119;-71
2022/05/28 03:10:01;;;;;;;9.50;1.80;;;11.30;99.90;;;;;;5029396;28;20505;-71
2022/05/28 03:12:26;;;;;;;5.57;1.40;;;11.30;99.90;;;;;;5027352;28;20036;-71
2022/05/28 03:14:52;;;;;;;6.80;1.10;;;11.30;99.90;;;;;;5028548;28;20029;-72
2022/05/28 03:17:17;;;;;;;9.70;1.10;;;11.20;99.90;;;;;;5028770;28;20113;-71
2022/05/28 03:19:43;;;;;;;9.98;1.15;;;11.20;99.90;;;;;;5027754;28;20025;-72
2022/05/28 03:22:09;;;;;;;5.85;0.95;;;11.20;99.90;;;;;;5029104;28;20083;-72
2022/05/28 03:24:34;;;;;;;10.77;1.83;;;11.20;99.90;;;;;;5026809;28;20053;-71
2022/05/28 03:27:00;;;;;;;17.38;1.95;;;11.20;99.90;;;;;;5024999;28;20406;-70
2022/05/28 03:29:26;;;;;;;6.47;0.98;;;11.10;99.90;;;;;;5028840;28;20425;-71
2022/05/28 03:31:52;;;;;;;10.07;1.10;;;11.20;99.90;;;;;;5029027;28;20069;-72
2022/05/28 03:34:18;;;;;;;6.35;1.25;;;11.20;99.90;;;;;;5027043;28;20068;-71
2022/05/28 03:36:43;;;;;;;17.38;1.23;;;11.20;99.90;;;;;;5028012;28;20041;-70
2022/05/28 03:39:09;;;;;;;2.55;0.40;;;11.20;99.90;;;;;;5027638;28;20029;-71
2022/05/28 03:41:35;;;;;;;5.07;0.82;;;11.20;99.90;;;;;;5024168;28;20065;-71
2022/05/28 03:44:01;;;;;;;3.15;0.85;;;11.10;99.90;;;;;;5021270;28;20044;-71
2022/05/28 03:46:34;;;;;;;4.07;0.55;;;11.10;99.90;;;;;;5030256;28;20257;-71
2022/05/28 03:49:03;;;;;;;4.72;0.68;;;11.20;99.90;;;;;;5032592;28;20677;-71
2022/05/28 03:51:30;;;;;;;2.10;0.68;;;11.10;99.90;;;;;;5032421;28;20034;-71
2022/05/28 03:53:56;;;;;;;4.47;0.75;;;11.10;99.90;;;;;;5032620;28;20120;-71
2022/05/28 03:56:24;;;;;;;9.27;0.50;;;11.10;99.90;;;;;;5031758;28;20125;-71
2022/05/28 03:58:50;;;;;;;5.15;0.75;;;11.00;99.90;;;;;;5024669;28;20033;-71
2022/05/28 04:01:17;;;;;;;4.90;0.55;;;11.10;99.90;;;;;;5032153;28;20039;-71
2022/05/28 04:03:42;;;;;;;5.47;0.70;;;11.00;99.90;;;;;;5031667;28;20429;-72
2022/05/28 04:06:09;;;;;;;4.10;0.70;;;11.10;99.90;;;;;;5032331;28;20047;-71
2022/05/28 04:08:35;;;;;;;4.03;0.40;;;11.00;99.90;;;;;;5031714;28;20125;-71
2022/05/28 04:11:01;;;;;;;1.88;0.30;;;11.00;99.90;;;;;;5032293;28;20124;-70
2022/05/28 04:13:26;;;;;;;4.93;0.50;;;11.10;99.90;;;;;;5031809;28;20048;-70
2022/05/28 04:15:52;;;;;;;3.97;1.08;;;11.00;99.90;;;;;;5030677;28;20037;-71
2022/05/28 04:18:18;;;;;;;5.25;0.90;;;11.00;99.90;;;;;;5031494;28;20041;-72
2022/05/28 04:20:44;;;;;;;5.22;0.55;;;11.00;99.90;;;;;;5030513;28;20552;-71
2022/05/28 04:23:10;;;;;;;11.70;1.17;;;11.00;99.90;;;;;;5032311;28;20573;-70
2022/05/28 04:25:35;;;;;;;5.90;0.73;;;11.00;99.90;;;;;;5026409;28;20139;-71
2022/05/28 04:28:01;;;;;;;3.33;0.30;;;11.10;99.90;;;;;;5030564;28;20029;-71
2022/05/28 04:30:27;;;;;;;3.38;0.32;;;11.00;99.90;;;;;;5031469;28;20413;-71
2022/05/28 04:32:52;;;;;;;5.18;1.15;;;11.00;99.90;;;;;;5031076;28;20045;-70
2022/05/28 04:35:18;;;;;;;6.32;0.50;;;11.00;99.90;;;;;;5029779;28;20060;-71
2022/05/28 04:37:43;;;;;;;3.55;0.68;;;11.10;99.90;;;;;;5031086;28;20030;-71
2022/05/28 04:40:10;;;;;;;5.45;0.75;;;11.10;99.90;;;;;;5031458;28;20030;-71
2022/05/28 04:42:36;;;;;;;3.75;0.40;;;11.10;99.90;;;;;;5012774;28;20543;-71
2022/05/28 04:45:03;;;;;;;4.05;0.38;;;11.20;99.90;;;;;;5032062;28;20036;-70
2022/05/28 04:47:30;;;;;;;1.85;0.30;;;11.20;99.90;;;;;;5022626;28;20034;-71
2022/05/28 04:49:55;;;;;;;5.90;0.47;;;11.20;99.90;;;;;;5027988;28;20125;-70
2022/05/28 04:52:21;;;;;;;2.55;0.82;;;11.20;99.90;;;;;;5030935;28;20108;-71
2022/05/28 04:54:47;;;;;;;7.45;0.80;;;11.20;99.90;;;;;;5030798;28;20425;-71
2022/05/28 04:57:13;;;;;;;2.17;0.52;;;11.20;99.90;;;;;;5030347;28;20034;-70
2022/05/28 04:59:38;;;;;;;4.90;0.75;;;11.20;99.90;;;;;;5030536;28;20041;-71
2022/05/28 05:02:06;;;;;;;8.27;0.80;;;11.30;99.90;;;;;;5031211;28;20449;-70
2022/05/28 05:04:31;;;;;;;1.45;0.28;;;11.30;99.90;;;;;;5029912;28;20508;-70
2022/05/28 05:06:57;;;;;;;2.70;0.30;;;11.40;99.90;;;;;;5028744;28;20041;-71
2022/05/28 05:09:23;;;;;;;6.05;0.50;;;11.40;99.90;;;;;;5028135;28;20029;-71
2022/05/28 05:11:49;;;;;;;6.45;0.40;;;11.40;99.90;;;;;;5028887;28;20060;-70
2022/05/28 05:14:14;;;;;;;5.47;0.40;;;11.50;99.90;;;;;;5031290;28;20041;-70
2022/05/28 05:16:40;;;;;;;4.43;0.40;;;11.50;99.90;;;;;;5029246;28;20037;-70
2022/05/28 05:19:06;;;;;;;6.63;0.88;;;11.60;99.90;;;;;;5024622;28;20038;-70
2022/05/28 05:21:31;;;;;;;4.47;0.60;;;11.60;99.90;;;;;;5023056;28;20228;-71
2022/05/28 05:23:57;;;;;;;5.15;0.35;;;11.70;99.90;;;;;;5029728;28;20075;-71
2022/05/28 05:26:22;;;;;;;7.00;0.50;;;11.80;99.90;;;;;;5025799;28;20034;-71
2022/05/28 05:28:48;;;;;;;1.40;0.20;;;11.80;99.90;;;;;;5012853;28;20029;-71
2022/05/28 05:31:14;;;;;;;9.00;0.60;;;11.90;99.90;;;;;;5031027;28;20037;-71
2022/05/28 05:33:40;;;;;;;5.60;0.63;;;12.00;99.90;;;;;;5029039;28;20025;-71
2022/05/28 05:36:07;;;;;;;9.63;1.38;;;12.00;99.90;;;;;;5027753;28;20502;-70
2022/05/28 05:38:33;;;;;;;4.15;0.73;;;12.20;99.90;;;;;;5029089;28;20029;-71
2022/05/28 05:40:58;;;;;;;3.75;0.40;;;12.50;99.90;;;;;;5028902;28;20045;-71
2022/05/28 05:43:24;;;;;;;5.13;0.50;;;12.80;99.90;;;;;;5029363;28;20033;-71
2022/05/28 05:45:57;;;;;;;3.53;0.70;;;13.00;99.90;;;;;;5029358;28;20045;-70
2022/05/28 05:48:24;;;;;;;5.47;0.57;;;13.40;99.90;;;;;;5029651;28;20129;-71
2022/05/28 05:50:50;;;;;;;2.88;0.40;;;13.80;99.90;;;;;;5029453;28;20497;-71
2022/05/28 05:53:16;;;;;;;6.93;0.43;;;14.40;99.90;;;;;;5027784;28;20044;-71
2022/05/28 05:55:43;;;;;;;5.72;0.57;;;14.80;99.90;;;;;;5021316;28;20048;-71
2022/05/28 05:58:08;;;;;;;3.92;0.40;;;15.10;99.90;;;;;;5028530;28;20025;-71
2022/05/28 06:00:34;;;;;;;9.05;0.65;;;15.30;99.90;;;;;;5028725;28;20098;-71
2022/05/28 06:03:00;;;;;;;5.07;0.50;;;15.60;99.90;;;;;;5029731;28;20048;-68
2022/05/28 06:05:26;;;;;;;5.18;0.70;;;15.70;99.90;;;;;;5029240;28;20504;-71
2022/05/28 06:07:51;;;;;;;3.78;0.80;;;16.00;99.90;;;;;;5028786;28;20125;-71
2022/05/28 06:10:17;;;;;;;1.48;0.45;;;16.20;99.90;;;;;;5029585;28;20036;-72
2022/05/28 06:12:42;;;;;;;4.38;0.52;;;16.40;99.90;;;;;;5026847;28;20113;-71
2022/05/28 06:15:09;;;;;;;5.07;0.70;;;16.50;99.90;;;;;;5029027;28;20030;-70
2022/05/28 06:17:36;;;;;;;5.25;0.70;;;16.60;99.90;;;;;;5028454;28;20036;-70
2022/05/28 06:20:07;;;;;;;7.13;0.82;;;16.60;99.90;;;;;;5029496;28;20512;-71
2022/05/28 06:22:33;;;;;;;3.40;0.30;;;16.70;99.90;;;;;;5026460;28;20053;-71
2022/05/28 06:24:59;;;;;;;3.05;0.85;;;16.90;99.90;;;;;;5026867;28;20483;-71
2022/05/28 06:27:24;;;;;;;3.15;0.50;;;17.20;99.90;;;;;;5027290;28;20518;-71
2022/05/28 06:29:50;;;;;;;4.32;0.70;;;17.60;99.90;;;;;;5026853;28;20025;-71
2022/05/28 06:32:16;;;;;;;5.32;0.70;;;18.20;98.90;;;;;;5028632;28;20453;-71
2022/05/28 06:34:42;;;;;;;2.15;0.32;;;18.80;97.50;;;;;;5027351;28;20116;-71
2022/05/28 06:37:08;;;;;;;3.45;0.50;;;19.50;96.90;;;;;;5028448;28;20124;-71
2022/05/28 06:39:35;;;;;;;8.02;0.93;;;19.90;97.30;;;;;;5012910;28;20041;-71
2022/05/28 06:42:02;;;;;;;3.13;0.45;;;20.50;95.50;;;;;;5007474;28;20390;-71
2022/05/28 06:44:27;;;;;;;5.90;0.70;;;20.40;93.00;;;;;;5006736;28;20488;-72
2022/05/28 06:46:53;;;;;;;3.55;0.65;;;20.30;92.90;;;;;;5011553;28;20034;-71
2022/05/28 06:49:19;;;;;;;4.55;0.45;;;20.20;92.50;;;;;;5009909;28;20029;-71
2022/05/28 06:51:45;;;;;;;1.80;0.65;;;19.80;92.00;;;;;;5011765;28;20029;-71
2022/05/28 06:54:11;;;;;;;3.58;0.47;;;20.30;91.80;;;;;;5008209;28;20556;-71
2022/05/28 06:56:36;;;;;;;3.58;0.73;;;20.00;91.10;;;;;;5011462;28;20045;-71
2022/05/28 06:59:02;;;;;;;1.88;0.98;;;19.80;90.80;;;;;;5024059;28;20060;-71
2022/05/28 07:01:28;;;;;;;2.20;0.45;;;19.80;91.40;;;;;;5027372;28;20060;-71
2022/05/28 07:03:54;;;;;;;4.93;0.60;;;20.00;90.00;;;;;;5027277;28;20421;-71
2022/05/28 07:06:19;;;;;;;3.50;0.70;;;20.80;88.00;;;;;;5027821;28;20517;-71
2022/05/28 07:08:45;;;;;;;5.53;0.82;;;21.20;85.40;;;;;;5017974;28;20497;-71
2022/05/28 07:11:11;;;;;;;1.63;0.40;;;20.30;86.10;;;;;;5027248;28;20124;-71
2022/05/28 07:13:37;;;;;;;4.13;0.70;;;19.60;89.00;;;;;;5015483;28;20029;-71
2022/05/28 07:16:05;;;;;;;3.42;0.65;;;19.60;89.90;;;;;;5025213;28;20060;-71
2022/05/28 07:18:35;;;;;;;1.67;0.30;;;19.20;89.40;;;;;;5024647;28;20160;-71
2022/05/28 07:21:01;;;;;;;4.88;0.68;;;18.50;90.20;;;;;;5030253;28;20068;-71
2022/05/28 07:23:28;;;;;;;6.07;0.60;;;17.90;91.20;;;;;;5029873;28;20489;-71
2022/05/28 07:26:20;;;;;;;4.15;0.95;;;17.10;91.90;;;;;;5028756;28;20042;-71
2022/05/28 07:28:45;;;;;;;5.32;0.55;;;16.60;93.10;;;;;;5019816;28;20026;-71
2022/05/28 07:31:15;;;;;;;3.85;0.88;;;17.30;93.50;;;;;;5031650;28;20055;-71
2022/05/28 07:33:42;;;;;;;4.15;0.60;;;19.10;92.30;;;;;;5029901;28;20441;-71
2022/05/28 07:36:10;;;;;;;7.68;1.02;;;21.00;90.70;;;;;;5030772;28;20025;-72
2022/05/28 07:38:37;;;;;;;4.82;0.47;;;22.30;85.80;;;;;;5020973;28;20166;-71
2022/05/28 07:41:09;;;;;;;4.78;0.80;;;23.20;80.20;;;;;;5031044;28;20026;-71
2022/05/28 07:43:36;;;;;;;3.55;0.70;;;23.90;76.10;;;;;;5022005;28;20045;-71
2022/05/28 07:46:03;;;;;;;5.30;0.68;;;24.60;72.30;;;;;;5027445;28;20030;-71
2022/05/28 07:48:28;;;;;;;6.75;1.48;;;25.00;68.90;;;;;;5029758;28;20053;-72
2022/05/28 07:50:54;;;;;;;12.82;0.95;;;25.00;67.00;;;;;;5030309;28;20389;-71
2022/05/28 07:53:20;;;;;;;9.75;0.88;;;24.60;66.50;;;;;;5014122;28;20084;-72
2022/05/28 07:55:45;;;;;;;5.75;1.10;;;24.70;67.10;;;;;;5009880;28;20482;-72
2022/05/28 07:58:14;;;;;;;6.00;1.42;;;24.10;64.60;;;;;;5027175;28;20865;-71
2022/05/28 08:00:44;;;;;;;13.02;1.35;;;23.70;66.40;;;;;;5029518;28;20033;-71
2022/05/28 08:03:11;;;;;;;5.18;0.50;;;23.50;65.50;;;;;;5030243;28;20026;-71
2022/05/28 08:05:38;;;;;;;3.13;0.82;;;22.90;65.00;;;;;;5024144;28;20025;-72
2022/05/28 08:08:05;;;;;;;2.35;0.55;;;22.50;66.50;;;;;;5022838;28;20575;-71
2022/05/28 08:10:31;;;;;;;4.63;0.88;;;21.80;68.20;;;;;;5028380;28;20026;-72
2022/05/28 08:13:01;;;;;;;6.82;0.88;;;21.50;69.80;;;;;;5029975;28;20060;-71
2022/05/28 08:15:27;;;;;;;6.30;0.80;;;21.10;68.70;;;;;;5029640;28;20090;-71
2022/05/28 08:17:53;;;;;;;4.30;0.75;;;20.80;69.00;;;;;;5029765;28;20116;-71
2022/05/28 08:20:18;;;;;;;3.97;1.15;;;20.40;70.00;;;;;;5031008;28;20712;-71
2022/05/28 08:25:28;;;;;;;6.32;0.60;;;19.70;72.10;;;;;;5025259;28;20033;-72
2022/05/28 08:27:53;;;;;;;2.67;0.40;;;19.40;72.00;;;;;;5026770;28;20485;-73
2022/05/28 08:30:19;;;;;;;5.55;0.38;;;19.00;72.40;;;;;;5028721;28;20150;-71
2022/05/28 08:32:44;;;;;;;3.03;0.68;;;19.00;73.00;;;;;;5029145;28;20061;-72
2022/05/28 08:35:10;;;;;;;8.85;0.75;;;19.00;75.60;;;;;;5030577;28;20056;-72
2022/05/28 08:37:35;;;;;;;4.30;0.40;;;19.10;75.60;;;;;;5030851;28;20449;-71
2022/05/28 08:40:01;;;;;;;6.68;0.63;;;18.80;75.60;;;;;;5022958;28;20477;-72
2022/05/28 08:42:28;;;;;;;2.40;0.25;;;18.60;77.70;;;;;;5030824;28;20274;-71
2022/05/28 08:44:56;;;;;;;6.78;1.38;;;18.60;79.50;;;;;;5030621;28;20041;-72
2022/05/28 08:47:27;;;;;;;8.18;1.25;;;18.60;77.90;;;;;;5031370;28;20079;-71
2022/05/28 08:49:53;;;;;;;8.77;0.93;;;18.60;77.50;;;;;;5030707;28;20036;-71
2022/05/28 08:52:22;;;;;;;4.75;0.68;;;18.60;76.70;;;;;;5029940;28;20028;-71
2022/05/28 08:54:58;;;;;;;4.60;0.60;;;18.60;75.30;;;;;;5029926;28;20115;-72
2022/05/28 08:57:35;;;;;;;4.15;0.68;;;18.60;76.30;;;;;;5029906;28;20045;-71
2022/05/28 09:00:14;;;;;;;4.25;0.75;;;18.60;77.20;;;;;;5022898;28;20045;-71
2022/05/28 09:02:46;;;;;;;5.07;1.27;;;18.80;77.90;;;;;;5022732;28;20544;-71
2022/05/28 09:05:31;;;;;;;4.05;0.40;;;18.70;75.50;;;;;;5030499;28;20042;-71
2022/05/28 09:08:00;;;;;;;5.95;0.75;;;18.60;75.80;;;;;;5028983;28;20099;-71
2022/05/28 09:10:37;;;;;;;4.50;0.70;;;18.70;77.30;;;;;;5030176;28;20107;-72
2022/05/28 09:13:21;;;;;;;6.75;0.95;;;18.90;77.80;;;;;;5020477;28;20044;-71
2022/05/28 09:15:46;;;;;;;3.40;0.57;;;19.00;75.80;;;;;;5012443;28;20049;-71
2022/05/28 09:18:12;;;;;;;4.15;0.85;;;19.00;76.80;;;;;;5017541;28;20044;-72
2022/05/28 09:20:40;;;;;;;3.80;1.05;;;19.00;76.70;;;;;;5014467;28;20128;-72
2022/05/28 09:23:06;;;;;;;3.92;0.80;;;18.80;77.80;;;;;;5011080;28;20548;-70
2022/05/28 09:25:37;;;;;;;1.85;0.38;;;18.80;78.50;;;;;;5016709;28;20041;-71
2022/05/28 09:28:21;;;;;;;5.28;0.75;;;18.70;77.10;;;;;;5012152;28;20034;-71
2022/05/28 09:31:12;;;;;;;3.08;0.40;;;18.60;76.00;;;;;;5010862;28;20583;-71
2022/05/28 09:33:57;;;;;;;2.88;0.40;;;18.10;76.00;;;;;;5014019;28;20405;-71
2022/05/28 09:37:10;;;;;;;4.30;0.70;;;17.80;78.60;;;;;;5012251;28;20616;-71
2022/05/28 09:39:59;;;;;;;2.38;0.38;;;17.80;78.40;;;;;;4946777;28;20035;-71
2022/05/28 09:42:30;;;;;;;4.75;0.60;;;17.60;79.60;;;;;;4951152;28;20066;-71
2022/05/28 09:45:08;;;;;;;4.07;0.88;;;17.60;78.70;;;;;;4995733;28;20043;-71
2022/05/28 09:47:52;;;;;;;4.22;0.45;;;17.80;79.40;;;;;;5010306;28;20046;-70
2022/05/28 09:50:29;;;;;;;5.55;1.00;;;18.10;79.40;;;;;;5006084;28;20057;-71
2022/05/28 09:56:02;;;;;;;;;;;17.70;80.00;;;;;;5011673;28;20044;-71
2022/05/28 09:58:30;;;;;;;8.13;0.88;;;17.50;82.00;;;;;;5016313;28;20376;-71
2022/05/28 10:01:26;;;;;;;5.38;1.00;;;17.60;82.30;;;;;;5020256;28;20029;-72
2022/05/28 10:06:51;;;;;;;1.35;0.30;;;17.90;80.20;;;;;;5023409;28;20567;-71
2022/05/28 10:09:21;;;;;;;3.28;0.60;;;17.80;78.70;;;;;;5024513;28;20037;-71
2022/05/28 10:11:58;;;;;;;;;;;17.50;78.30;;;;;;5027923;28;20057;-71
2022/05/28 10:14:28;;;;;;;5.75;0.55;;;17.30;77.30;;;;;;5023919;28;19920;-70
2022/05/28 10:16:59;;;;;;;5.65;0.65;;;17.60;79.20;;;;;;5027698;28;20625;-71
2022/05/28 10:19:30;;;;;;;5.40;0.77;;;17.60;79.20;;;;;;5025998;28;20037;-70
2022/05/28 10:21:59;;;;;;;6.38;0.80;;;17.50;79.20;;;;;;5014344;28;20453;-71
2022/05/28 10:24:27;;;;;;;4.40;0.55;;;17.50;79.60;;;;;;5016862;28;20116;-71
2022/05/28 10:26:56;;;;;;;8.85;0.98;;;17.60;79.20;;;;;;5022204;28;20037;-72
2022/05/28 10:29:43;;;;;;;3.28;0.52;;;17.90;77.20;;;;;;5011446;28;20034;-71
2022/05/28 10:32:34;;;;;;;5.57;0.95;;;18.20;78.70;;;;;;5009625;28;20034;-71
2022/05/28 10:35:25;;;;;;;4.20;0.40;;;18.60;79.20;;;;;;5008883;28;20030;-71
2022/05/28 10:37:51;;;;;;;5.78;1.10;;;18.60;77.10;;;;;;5013752;28;20033;-71
2022/05/28 10:40:16;;;;;;;8.35;1.35;;;18.40;79.30;;;;;;5012724;28;20033;-71
2022/05/28 10:42:43;;;;;;;8.70;1.15;;;18.10;81.30;;;;;;5012026;28;20026;-70
2022/05/28 10:45:10;;;;;;;4.65;0.70;;;17.80;82.90;;;;;;5016081;28;20064;-70
2022/05/28 10:47:46;;;;;;;4.07;0.82;;;17.70;84.20;;;;;;5015195;28;20409;-70
2022/05/28 10:50:35;;;;;;;7.50;0.65;;;17.80;83.30;;;;;;5014233;28;20075;-71
2022/05/28 10:53:19;;;;;;;3.88;0.50;;;18.10;84.10;;;;;;5009898;28;20038;-71
2022/05/28 10:56:15;;;;;;;5.93;0.75;;;18.20;79.30;;;;;;5014420;28;20037;-70
2022/05/28 10:59:22;;;;;;;3.10;0.65;;;18.20;81.20;;;;;;5015803;28;20044;-71
2022/05/28 11:01:57;;;;;;;6.53;0.95;;;17.90;82.70;;;;;;5014902;28;20108;-70
2022/05/28 11:04:48;;;;;;;3.90;0.40;;;17.90;81.70;;;;;;5013457;28;20444;-70
2022/05/28 11:07:22;;;;;;;5.90;0.50;;;17.90;80.00;;;;;;5010719;28;20034;-70
2022/05/28 11:10:14;;;;;;;1.83;0.40;;;18.00;79.80;;;;;;5013627;28;20510;-71
2022/05/28 11:12:54;;;;;;;5.55;0.50;;;18.10;77.10;;;;;;5014516;28;20030;-70
2022/05/28 11:15:50;;;;;;;6.75;0.75;;;18.30;79.10;;;;;;5015252;28;20492;-70
2022/05/28 11:18:48;;;;;;;7.45;0.63;;;18.40;76.90;;;;;;5012986;28;20029;-70
2022/05/28 11:21:33;;;;;;;1.80;0.32;;;18.60;77.00;;;;;;5010415;28;20045;-70
2022/05/28 11:24:19;;;;;;;3.17;0.68;;;18.40;72.80;;;;;;5008111;28;20034;-70
2022/05/28 11:27:20;;;;;;;2.20;0.30;;;18.40;73.20;;;;;;5012635;28;20041;-70
2022/05/28 11:30:04;;;;;;;3.17;0.43;;;18.30;73.70;;;;;;5019701;28;20607;-71
2022/05/28 11:32:39;;;;;;;3.47;0.50;;;18.60;75.40;;;;;;5023267;28;20056;-71
2022/05/28 11:35:13;;;;;;;4.07;0.50;;;18.90;74.90;;;;;;5025819;28;20030;-71
2022/05/28 11:37:45;;;;;;;8.82;0.88;;;19.20;74.00;;;;;;5025982;28;20057;-70
2022/05/28 11:40:20;;;;;;;6.78;1.10;;;18.90;75.40;;;;;;5024320;28;20562;-69
2022/05/28 11:42:55;;;;;;;4.15;0.70;;;18.50;76.90;;;;;;5026015;28;20548;-70
2022/05/28 11:45:40;;;;;;;3.83;0.70;;;18.20;77.30;;;;;;5019802;28;20060;-71
2022/05/28 11:48:22;;;;;;;4.75;0.52;;;18.10;78.10;;;;;;5021327;28;20053;-71
2022/05/28 11:53:44;;;;;;;4.13;0.30;;;18.20;75.70;;;;;;5022804;28;20554;-71
2022/05/28 11:56:13;;;;;;;6.13;0.60;;;18.10;77.10;;;;;;5025000;28;20456;-71
2022/05/28 11:58:50;;;;;;;9.63;1.38;;;17.80;78.10;;;;;;5006568;28;20026;-71
2022/05/28 12:01:27;;;;;;;8.95;1.40;;;17.60;79.80;;;;;;5015129;28;20098;-71
2022/05/28 12:03:53;;;;;;;14.93;1.35;;;17.80;81.80;;;;;;5010533;28;20417;-70
2022/05/28 12:06:26;;;;;;;11.75;2.05;;;17.70;82.70;;;;;;5013740;28;20046;-71
2022/05/28 12:09:21;;;;;;;5.13;0.57;;;17.50;83.00;;;;;;5011488;28;20053;-71
2022/05/28 12:12:17;;;;;;;7.65;1.30;;;17.30;84.10;;;;;;5017386;28;20056;-70
2022/05/28 12:14:47;;;;;;;7.72;0.93;;;17.20;84.00;;;;;;5016383;28;20033;-70
2022/05/28 12:17:19;;;;;;;8.07;1.10;;;17.30;85.10;;;;;;5014602;28;20033;-70
2022/05/28 12:19:48;;;;;;;5.85;0.73;;;17.40;83.80;;;;;;5013638;28;20072;-71
2022/05/28 12:22:30;;;;;;;5.53;0.60;;;17.60;83.20;;;;;;5018268;28;20037;-71
2022/05/28 12:25:19;;;;;;;3.80;0.63;;;17.80;83.50;;;;;;5012006;28;20084;-71
2022/05/28 12:27:47;;;;;;;8.05;0.82;;;17.60;79.30;;;;;;5009575;28;20040;-71
2022/05/28 12:30:35;;;;;;;6.15;0.60;;;17.60;81.50;;;;;;5013366;28;20088;-71
2022/05/28 12:33:01;;;;;;;5.93;0.68;;;17.60;80.80;;;;;;5013602;28;20815;-71
2022/05/28 12:35:37;;;;;;;2.80;0.50;;;17.80;81.30;;;;;;5016354;28;20167;-71
2022/05/28 12:38:09;;;;;;;4.47;0.70;;;17.90;79.50;;;;;;5014415;28;20033;-71
2022/05/28 12:40:57;;;;;;;4.63;0.73;;;18.10;78.20;;;;;;5011357;28;20083;-70
2022/05/28 12:43:37;;;;;;;2.60;0.40;;;18.00;75.50;;;;;;5010717;28;20033;-71
2022/05/28 12:46:37;;;;;;;3.45;0.45;;;17.80;75.60;;;;;;5013123;28;20030;-71
2022/05/28 12:49:09;;;;;;;3.72;0.70;;;17.80;75.40;;;;;;5012926;28;20040;-71
2022/05/28 12:52:01;;;;;;;3.85;0.63;;;17.90;74.40;;;;;;5013339;28;20030;-71
2022/05/28 12:54:30;;;;;;;6.90;0.88;;;17.90;76.10;;;;;;5010240;28;20398;-72
2022/05/28 12:57:13;;;;;;;4.07;0.40;;;18.00;77.50;;;;;;5019549;28;20117;-72
2022/05/28 12:59:45;;;;;;;6.53;0.50;;;17.90;74.00;;;;;;5014985;28;20046;-70
2022/05/28 13:02:16;;;;;;;2.70;0.75;;;17.80;74.80;;;;;;5015121;28;20116;-70
2022/05/28 13:04:46;;;;;;;3.03;0.50;;;17.80;77.50;;;;;;5018497;28;20464;-70
2022/05/28 13:07:41;;;;;;;6.93;0.43;;;17.80;76.60;;;;;;5015590;28;20034;-71
2022/05/28 13:10:15;;;;;;;3.13;0.32;;;17.90;76.70;;;;;;5014905;28;20037;-71
2022/05/28 13:12:53;;;;;;;9.73;0.55;;;17.80;77.50;;;;;;5016680;28;20405;-71
2022/05/28 13:15:25;;;;;;;3.75;0.65;;;17.80;76.80;;;;;;5012330;28;20921;-71
2022/05/28 13:18:04;;;;;;;1.02;0.32;;;17.90;77.30;;;;;;5007978;28;20056;-71